sensor_id;sensor_type;location;lat;lon;timestamp;P1;durP1;ratioP1;P2;durP2;ratioP2
18265;SDS011;9259;48.194;16.322;2022-10-14T00:00:36;58.60;;;28.77;;
18265;SDS011;9259;48.194;16.322;2022-10-14T00:03:04;62.73;;;28.20;;
18265;SDS011;9259;48.194;16.322;2022-10-14T00:05:32;55.83;;;27.53;;
18265;SDS011;9259;48.194;16.322;2022-10-14T00:08:00;58.97;;;28.27;;
18265;SDS011;9259;48.194;16.322;2022-10-14T00:10:28;56.50;;;27.47;;
18265;SDS011;9259;48.194;16.322;2022-10-14T00:12:58;59.57;;;29.03;;
18265;SDS011;9259;48.194;16.322;2022-10-14T00:15:26;62.63;;;29.53;;
18265;SDS011;9259;48.194;16.322;2022-10-14T00:17:54;60.90;;;29.97;;
18265;SDS011;9259;48.194;16.322;2022-10-14T00:20:22;64.30;;;30.43;;
18265;SDS011;9259;48.194;16.322;2022-10-14T00:22:50;63.43;;;30.27;;
18265;SDS011;9259;48.194;16.322;2022-10-14T00:25:18;61.53;;;29.63;;
18265;SDS011;9259;48.194;16.322;2022-10-14T00:27:46;63.70;;;30.73;;
18265;SDS011;9259;48.194;16.322;2022-10-14T00:30:16;62.93;;;29.00;;
18265;SDS011;9259;48.194;16.322;2022-10-14T00:32:44;67.13;;;30.87;;
18265;SDS011;9259;48.194;16.322;2022-10-14T00:35:12;62.33;;;28.37;;
18265;SDS011;9259;48.194;16.322;2022-10-14T00:37:42;58.63;;;28.20;;
18265;SDS011;9259;48.194;16.322;2022-10-14T00:40:11;62.50;;;29.90;;
18265;SDS011;9259;48.194;16.322;2022-10-14T00:42:39;71.07;;;31.00;;
18265;SDS011;9259;48.194;16.322;2022-10-14T00:45:10;69.03;;;31.83;;
18265;SDS011;9259;48.194;16.322;2022-10-14T00:47:42;66.07;;;31.03;;
18265;SDS011;9259;48.194;16.322;2022-10-14T00:50:11;86.03;;;35.63;;
18265;SDS011;9259;48.194;16.322;2022-10-14T00:52:40;82.37;;;36.10;;
18265;SDS011;9259;48.194;16.322;2022-10-14T00:55:10;92.03;;;37.23;;
18265;SDS011;9259;48.194;16.322;2022-10-14T00:57:39;87.90;;;37.80;;
18265;SDS011;9259;48.194;16.322;2022-10-14T01:00:08;91.33;;;37.30;;
18265;SDS011;9259;48.194;16.322;2022-10-14T01:02:38;103.13;;;40.80;;
18265;SDS011;9259;48.194;16.322;2022-10-14T01:05:08;111.93;;;43.13;;
18265;SDS011;9259;48.194;16.322;2022-10-14T01:07:39;122.60;;;45.80;;
18265;SDS011;9259;48.194;16.322;2022-10-14T01:10:13;141.83;;;49.03;;
18265;SDS011;9259;48.194;16.322;2022-10-14T01:12:48;149.60;;;49.70;;
18265;SDS011;9259;48.194;16.322;2022-10-14T01:15:25;157.90;;;52.10;;
18265;SDS011;9259;48.194;16.322;2022-10-14T01:18:00;156.87;;;50.90;;
18265;SDS011;9259;48.194;16.322;2022-10-14T01:20:48;164.00;;;51.57;;
18265;SDS011;9259;48.194;16.322;2022-10-14T01:23:43;174.73;;;51.60;;
18265;SDS011;9259;48.194;16.322;2022-10-14T01:26:47;175.37;;;50.93;;
18265;SDS011;9259;48.194;16.322;2022-10-14T01:29:36;205.70;;;55.93;;
18265;SDS011;9259;48.194;16.322;2022-10-14T01:32:22;184.73;;;53.27;;
18265;SDS011;9259;48.194;16.322;2022-10-14T01:34:54;193.67;;;54.87;;
18265;SDS011;9259;48.194;16.322;2022-10-14T01:37:25;213.07;;;55.90;;
18265;SDS011;9259;48.194;16.322;2022-10-14T01:39:56;213.37;;;54.97;;
18265;SDS011;9259;48.194;16.322;2022-10-14T01:42:27;203.70;;;53.83;;
18265;SDS011;9259;48.194;16.322;2022-10-14T01:45:02;216.30;;;55.13;;
18265;SDS011;9259;48.194;16.322;2022-10-14T01:47:32;197.20;;;52.70;;
18265;SDS011;9259;48.194;16.322;2022-10-14T01:50:02;191.07;;;53.43;;
18265;SDS011;9259;48.194;16.322;2022-10-14T01:52:33;181.83;;;51.37;;
18265;SDS011;9259;48.194;16.322;2022-10-14T01:55:05;186.80;;;52.37;;
18265;SDS011;9259;48.194;16.322;2022-10-14T01:57:36;191.80;;;53.53;;
18265;SDS011;9259;48.194;16.322;2022-10-14T02:00:07;189.27;;;52.43;;
18265;SDS011;9259;48.194;16.322;2022-10-14T02:02:37;183.73;;;53.17;;
18265;SDS011;9259;48.194;16.322;2022-10-14T02:05:06;181.20;;;51.60;;
18265;SDS011;9259;48.194;16.322;2022-10-14T02:07:37;179.43;;;49.83;;
18265;SDS011;9259;48.194;16.322;2022-10-14T02:10:09;180.57;;;50.67;;
18265;SDS011;9259;48.194;16.322;2022-10-14T02:12:44;177.50;;;50.00;;
18265;SDS011;9259;48.194;16.322;2022-10-14T02:15:22;179.83;;;50.80;;
18265;SDS011;9259;48.194;16.322;2022-10-14T02:17:55;180.63;;;49.90;;
18265;SDS011;9259;48.194;16.322;2022-10-14T02:20:27;173.13;;;50.03;;
18265;SDS011;9259;48.194;16.322;2022-10-14T02:22:59;175.60;;;48.40;;
18265;SDS011;9259;48.194;16.322;2022-10-14T02:25:31;168.33;;;48.47;;
18265;SDS011;9259;48.194;16.322;2022-10-14T02:28:01;161.57;;;48.17;;
18265;SDS011;9259;48.194;16.322;2022-10-14T02:30:34;173.93;;;48.80;;
18265;SDS011;9259;48.194;16.322;2022-10-14T02:33:04;165.83;;;48.20;;
18265;SDS011;9259;48.194;16.322;2022-10-14T02:35:32;166.03;;;48.30;;
18265;SDS011;9259;48.194;16.322;2022-10-14T02:38:01;158.57;;;46.33;;
18265;SDS011;9259;48.194;16.322;2022-10-14T02:40:32;141.43;;;44.67;;
18265;SDS011;9259;48.194;16.322;2022-10-14T02:43:03;132.37;;;42.27;;
18265;SDS011;9259;48.194;16.322;2022-10-14T02:45:34;125.00;;;42.47;;
18265;SDS011;9259;48.194;16.322;2022-10-14T02:48:02;131.47;;;42.30;;
18265;SDS011;9259;48.194;16.322;2022-10-14T02:50:31;137.87;;;43.17;;
18265;SDS011;9259;48.194;16.322;2022-10-14T02:52:59;132.53;;;42.27;;
18265;SDS011;9259;48.194;16.322;2022-10-14T02:55:27;135.87;;;44.37;;
18265;SDS011;9259;48.194;16.322;2022-10-14T02:57:55;144.23;;;45.37;;
18265;SDS011;9259;48.194;16.322;2022-10-14T03:00:23;128.07;;;42.27;;
18265;SDS011;9259;48.194;16.322;2022-10-14T03:02:53;133.30;;;42.07;;
18265;SDS011;9259;48.194;16.322;2022-10-14T03:05:21;129.93;;;40.40;;
18265;SDS011;9259;48.194;16.322;2022-10-14T03:07:49;127.77;;;40.53;;
18265;SDS011;9259;48.194;16.322;2022-10-14T03:10:17;119.63;;;41.57;;
18265;SDS011;9259;48.194;16.322;2022-10-14T03:12:45;106.47;;;38.87;;
18265;SDS011;9259;48.194;16.322;2022-10-14T03:15:13;103.30;;;38.00;;
18265;SDS011;9259;48.194;16.322;2022-10-14T03:17:41;99.17;;;38.10;;
18265;SDS011;9259;48.194;16.322;2022-10-14T03:20:11;105.47;;;39.80;;
18265;SDS011;9259;48.194;16.322;2022-10-14T03:22:39;95.53;;;37.50;;
18265;SDS011;9259;48.194;16.322;2022-10-14T03:25:08;104.90;;;37.10;;
18265;SDS011;9259;48.194;16.322;2022-10-14T03:27:36;103.17;;;36.53;;
18265;SDS011;9259;48.194;16.322;2022-10-14T03:30:04;99.73;;;36.07;;
18265;SDS011;9259;48.194;16.322;2022-10-14T03:32:33;103.63;;;35.73;;
18265;SDS011;9259;48.194;16.322;2022-10-14T03:35:01;99.27;;;36.93;;
18265;SDS011;9259;48.194;16.322;2022-10-14T03:37:31;104.43;;;37.53;;
18265;SDS011;9259;48.194;16.322;2022-10-14T03:39:59;104.33;;;37.40;;
18265;SDS011;9259;48.194;16.322;2022-10-14T03:42:27;96.90;;;36.40;;
18265;SDS011;9259;48.194;16.322;2022-10-14T03:44:55;102.63;;;37.03;;
18265;SDS011;9259;48.194;16.322;2022-10-14T03:47:23;99.43;;;35.83;;
18265;SDS011;9259;48.194;16.322;2022-10-14T03:49:51;99.77;;;36.57;;
18265;SDS011;9259;48.194;16.322;2022-10-14T03:52:19;82.33;;;33.40;;
18265;SDS011;9259;48.194;16.322;2022-10-14T03:54:49;84.10;;;34.13;;
18265;SDS011;9259;48.194;16.322;2022-10-14T03:57:17;86.63;;;34.17;;
18265;SDS011;9259;48.194;16.322;2022-10-14T03:59:45;89.33;;;33.80;;
18265;SDS011;9259;48.194;16.322;2022-10-14T04:02:13;85.17;;;34.47;;
18265;SDS011;9259;48.194;16.322;2022-10-14T04:04:41;99.77;;;35.97;;
18265;SDS011;9259;48.194;16.322;2022-10-14T04:07:09;90.97;;;34.63;;
18265;SDS011;9259;48.194;16.322;2022-10-14T04:09:37;82.73;;;32.67;;
18265;SDS011;9259;48.194;16.322;2022-10-14T04:12:07;87.73;;;34.07;;
18265;SDS011;9259;48.194;16.322;2022-10-14T04:14:35;82.00;;;32.33;;
18265;SDS011;9259;48.194;16.322;2022-10-14T04:17:03;83.53;;;32.90;;
18265;SDS011;9259;48.194;16.322;2022-10-14T04:19:31;91.90;;;34.13;;
18265;SDS011;9259;48.194;16.322;2022-10-14T04:21:59;94.33;;;33.83;;
18265;SDS011;9259;48.194;16.322;2022-10-14T04:24:27;93.47;;;33.77;;
18265;SDS011;9259;48.194;16.322;2022-10-14T04:26:56;90.60;;;33.37;;
18265;SDS011;9259;48.194;16.322;2022-10-14T04:29:25;87.50;;;33.93;;
18265;SDS011;9259;48.194;16.322;2022-10-14T04:31:54;103.27;;;35.23;;
18265;SDS011;9259;48.194;16.322;2022-10-14T04:34:22;97.07;;;35.93;;
18265;SDS011;9259;48.194;16.322;2022-10-14T04:36:50;94.00;;;34.40;;
18265;SDS011;9259;48.194;16.322;2022-10-14T04:39:19;91.13;;;34.30;;
18265;SDS011;9259;48.194;16.322;2022-10-14T04:41:47;91.23;;;34.03;;
18265;SDS011;9259;48.194;16.322;2022-10-14T04:44:15;97.40;;;35.27;;
18265;SDS011;9259;48.194;16.322;2022-10-14T04:46:44;88.00;;;31.60;;
18265;SDS011;9259;48.194;16.322;2022-10-14T04:49:12;90.03;;;34.60;;
18265;SDS011;9259;48.194;16.322;2022-10-14T04:51:41;88.83;;;34.37;;
18265;SDS011;9259;48.194;16.322;2022-10-14T04:54:09;84.37;;;33.10;;
18265;SDS011;9259;48.194;16.322;2022-10-14T04:56:37;83.83;;;32.63;;
18265;SDS011;9259;48.194;16.322;2022-10-14T04:59:05;83.87;;;32.57;;
18265;SDS011;9259;48.194;16.322;2022-10-14T05:01:33;77.33;;;31.87;;
18265;SDS011;9259;48.194;16.322;2022-10-14T05:04:03;76.37;;;32.70;;
18265;SDS011;9259;48.194;16.322;2022-10-14T05:06:31;69.87;;;30.80;;
18265;SDS011;9259;48.194;16.322;2022-10-14T05:08:59;74.30;;;30.33;;
18265;SDS011;9259;48.194;16.322;2022-10-14T05:11:27;71.10;;;28.80;;
18265;SDS011;9259;48.194;16.322;2022-10-14T05:13:55;66.53;;;28.67;;
18265;SDS011;9259;48.194;16.322;2022-10-14T05:16:23;67.73;;;30.50;;
18265;SDS011;9259;48.194;16.322;2022-10-14T05:18:51;71.83;;;30.30;;
18265;SDS011;9259;48.194;16.322;2022-10-14T05:21:21;69.13;;;29.63;;
18265;SDS011;9259;48.194;16.322;2022-10-14T05:23:49;64.57;;;29.00;;
18265;SDS011;9259;48.194;16.322;2022-10-14T05:26:17;73.57;;;30.03;;
18265;SDS011;9259;48.194;16.322;2022-10-14T05:28:45;72.10;;;29.37;;
18265;SDS011;9259;48.194;16.322;2022-10-14T05:31:13;65.40;;;29.00;;
18265;SDS011;9259;48.194;16.322;2022-10-14T05:33:41;71.73;;;29.53;;
18265;SDS011;9259;48.194;16.322;2022-10-14T05:36:09;61.13;;;27.73;;
18265;SDS011;9259;48.194;16.322;2022-10-14T05:38:39;65.30;;;28.27;;
18265;SDS011;9259;48.194;16.322;2022-10-14T05:41:08;62.10;;;28.00;;
18265;SDS011;9259;48.194;16.322;2022-10-14T05:43:36;61.20;;;27.83;;
18265;SDS011;9259;48.194;16.322;2022-10-14T05:46:04;57.53;;;27.33;;
18265;SDS011;9259;48.194;16.322;2022-10-14T05:48:32;55.73;;;25.90;;
18265;SDS011;9259;48.194;16.322;2022-10-14T05:51:00;58.63;;;26.03;;
18265;SDS011;9259;48.194;16.322;2022-10-14T05:53:28;53.03;;;26.40;;
18265;SDS011;9259;48.194;16.322;2022-10-14T05:56:02;57.50;;;26.80;;
18265;SDS011;9259;48.194;16.322;2022-10-14T05:58:31;60.53;;;26.70;;
18265;SDS011;9259;48.194;16.322;2022-10-14T06:01:00;59.30;;;26.40;;
18265;SDS011;9259;48.194;16.322;2022-10-14T06:03:28;57.40;;;25.43;;
18265;SDS011;9259;48.194;16.322;2022-10-14T06:05:56;53.67;;;26.43;;
18265;SDS011;9259;48.194;16.322;2022-10-14T06:08:24;58.77;;;28.23;;
18265;SDS011;9259;48.194;16.322;2022-10-14T06:10:53;56.77;;;26.77;;
18265;SDS011;9259;48.194;16.322;2022-10-14T06:13:22;57.10;;;27.83;;
18265;SDS011;9259;48.194;16.322;2022-10-14T06:15:50;54.23;;;27.63;;
18265;SDS011;9259;48.194;16.322;2022-10-14T06:18:19;63.93;;;29.00;;
18265;SDS011;9259;48.194;16.322;2022-10-14T06:20:50;61.43;;;29.23;;
18265;SDS011;9259;48.194;16.322;2022-10-14T06:23:18;69.17;;;30.80;;
18265;SDS011;9259;48.194;16.322;2022-10-14T06:25:47;71.43;;;31.87;;
18265;SDS011;9259;48.194;16.322;2022-10-14T06:28:15;62.60;;;30.13;;
18265;SDS011;9259;48.194;16.322;2022-10-14T06:30:48;59.20;;;30.67;;
18265;SDS011;9259;48.194;16.322;2022-10-14T06:33:17;62.40;;;30.17;;
18265;SDS011;9259;48.194;16.322;2022-10-14T06:35:45;60.23;;;30.40;;
18265;SDS011;9259;48.194;16.322;2022-10-14T06:38:13;58.57;;;30.10;;
18265;SDS011;9259;48.194;16.322;2022-10-14T06:40:42;62.47;;;29.83;;
18265;SDS011;9259;48.194;16.322;2022-10-14T06:43:10;58.63;;;28.60;;
18265;SDS011;9259;48.194;16.322;2022-10-14T06:45:38;59.53;;;29.50;;
18265;SDS011;9259;48.194;16.322;2022-10-14T06:48:07;61.50;;;30.73;;
18265;SDS011;9259;48.194;16.322;2022-10-14T06:50:35;63.60;;;31.20;;
18265;SDS011;9259;48.194;16.322;2022-10-14T06:53:03;62.43;;;31.00;;
18265;SDS011;9259;48.194;16.322;2022-10-14T06:55:32;65.53;;;31.27;;
18265;SDS011;9259;48.194;16.322;2022-10-14T06:58:00;64.33;;;31.33;;
18265;SDS011;9259;48.194;16.322;2022-10-14T07:00:28;63.13;;;31.80;;
18265;SDS011;9259;48.194;16.322;2022-10-14T07:02:56;68.30;;;31.87;;
18265;SDS011;9259;48.194;16.322;2022-10-14T07:05:26;72.60;;;33.20;;
18265;SDS011;9259;48.194;16.322;2022-10-14T07:07:55;69.80;;;32.67;;
18265;SDS011;9259;48.194;16.322;2022-10-14T07:10:23;72.63;;;34.60;;
18265;SDS011;9259;48.194;16.322;2022-10-14T07:12:52;67.80;;;33.20;;
18265;SDS011;9259;48.194;16.322;2022-10-14T07:15:21;71.67;;;32.50;;
18265;SDS011;9259;48.194;16.322;2022-10-14T07:17:49;67.43;;;33.60;;
18265;SDS011;9259;48.194;16.322;2022-10-14T07:20:17;66.37;;;32.63;;
18265;SDS011;9259;48.194;16.322;2022-10-14T07:22:46;66.07;;;31.57;;
18265;SDS011;9259;48.194;16.322;2022-10-14T07:25:14;67.93;;;31.90;;
18265;SDS011;9259;48.194;16.322;2022-10-14T07:27:43;65.00;;;31.23;;
18265;SDS011;9259;48.194;16.322;2022-10-14T07:30:11;61.20;;;31.40;;
18265;SDS011;9259;48.194;16.322;2022-10-14T07:32:39;64.47;;;32.43;;
18265;SDS011;9259;48.194;16.322;2022-10-14T07:35:07;60.63;;;29.90;;
18265;SDS011;9259;48.194;16.322;2022-10-14T07:37:35;61.17;;;30.40;;
18265;SDS011;9259;48.194;16.322;2022-10-14T07:40:05;55.50;;;29.20;;
18265;SDS011;9259;48.194;16.322;2022-10-14T07:42:34;59.97;;;29.07;;
18265;SDS011;9259;48.194;16.322;2022-10-14T07:45:03;61.47;;;29.93;;
18265;SDS011;9259;48.194;16.322;2022-10-14T07:47:32;57.30;;;29.30;;
18265;SDS011;9259;48.194;16.322;2022-10-14T07:50:00;56.80;;;28.77;;
18265;SDS011;9259;48.194;16.322;2022-10-14T07:52:28;56.77;;;29.70;;
18265;SDS011;9259;48.194;16.322;2022-10-14T07:54:56;53.60;;;27.63;;
18265;SDS011;9259;48.194;16.322;2022-10-14T07:57:26;54.33;;;28.33;;
18265;SDS011;9259;48.194;16.322;2022-10-14T07:59:54;49.57;;;27.27;;
18265;SDS011;9259;48.194;16.322;2022-10-14T08:02:22;55.37;;;27.30;;
18265;SDS011;9259;48.194;16.322;2022-10-14T08:04:51;58.50;;;28.77;;
18265;SDS011;9259;48.194;16.322;2022-10-14T08:07:20;52.90;;;27.80;;
18265;SDS011;9259;48.194;16.322;2022-10-14T08:09:48;53.03;;;27.60;;
18265;SDS011;9259;48.194;16.322;2022-10-14T08:12:18;51.17;;;27.90;;
18265;SDS011;9259;48.194;16.322;2022-10-14T08:14:48;51.67;;;28.67;;
18265;SDS011;9259;48.194;16.322;2022-10-14T08:17:16;49.97;;;27.10;;
18265;SDS011;9259;48.194;16.322;2022-10-14T08:19:44;52.23;;;27.23;;
18265;SDS011;9259;48.194;16.322;2022-10-14T08:22:12;55.60;;;27.30;;
18265;SDS011;9259;48.194;16.322;2022-10-14T08:24:40;53.07;;;27.87;;
18265;SDS011;9259;48.194;16.322;2022-10-14T08:27:09;48.93;;;26.57;;
18265;SDS011;9259;48.194;16.322;2022-10-14T08:29:37;48.90;;;26.90;;
18265;SDS011;9259;48.194;16.322;2022-10-14T08:32:07;51.33;;;27.73;;
18265;SDS011;9259;48.194;16.322;2022-10-14T08:34:35;51.10;;;26.97;;
18265;SDS011;9259;48.194;16.322;2022-10-14T08:37:03;54.43;;;25.40;;
18265;SDS011;9259;48.194;16.322;2022-10-14T08:39:31;50.40;;;27.63;;
18265;SDS011;9259;48.194;16.322;2022-10-14T08:42:06;55.47;;;29.70;;
18265;SDS011;9259;48.194;16.322;2022-10-14T08:44:42;58.23;;;29.03;;
18265;SDS011;9259;48.194;16.322;2022-10-14T08:47:15;59.33;;;30.57;;
18265;SDS011;9259;48.194;16.322;2022-10-14T08:49:51;59.03;;;30.57;;
18265;SDS011;9259;48.194;16.322;2022-10-14T08:52:24;58.63;;;30.87;;
18265;SDS011;9259;48.194;16.322;2022-10-14T08:54:57;61.00;;;32.40;;
18265;SDS011;9259;48.194;16.322;2022-10-14T08:57:30;65.03;;;32.53;;
18265;SDS011;9259;48.194;16.322;2022-10-14T09:00:01;58.87;;;31.07;;
18265;SDS011;9259;48.194;16.322;2022-10-14T09:02:39;53.87;;;27.93;;
18265;SDS011;9259;48.194;16.322;2022-10-14T09:05:12;48.78;;;27.05;;
18265;SDS011;9259;48.194;16.322;2022-10-14T09:07:41;52.10;;;26.92;;
18265;SDS011;9259;48.194;16.322;2022-10-14T09:10:10;45.90;;;25.20;;
18265;SDS011;9259;48.194;16.322;2022-10-14T09:12:41;52.97;;;26.98;;
18265;SDS011;9259;48.194;16.322;2022-10-14T09:15:12;49.70;;;28.40;;
18265;SDS011;9259;48.194;16.322;2022-10-14T09:17:45;51.15;;;27.52;;
18265;SDS011;9259;48.194;16.322;2022-10-14T09:20:18;48.42;;;26.75;;
18265;SDS011;9259;48.194;16.322;2022-10-14T09:22:50;50.38;;;27.33;;
18265;SDS011;9259;48.194;16.322;2022-10-14T09:25:25;47.22;;;26.08;;
18265;SDS011;9259;48.194;16.322;2022-10-14T09:27:53;43.33;;;24.98;;
18265;SDS011;9259;48.194;16.322;2022-10-14T09:30:21;40.50;;;23.13;;
18265;SDS011;9259;48.194;16.322;2022-10-14T09:32:51;39.17;;;22.58;;
18265;SDS011;9259;48.194;16.322;2022-10-14T09:35:22;42.50;;;22.90;;
18265;SDS011;9259;48.194;16.322;2022-10-14T09:37:51;37.17;;;21.02;;
18265;SDS011;9259;48.194;16.322;2022-10-14T09:40:22;46.03;;;24.38;;
18265;SDS011;9259;48.194;16.322;2022-10-14T09:42:56;45.17;;;23.50;;
18265;SDS011;9259;48.194;16.322;2022-10-14T09:45:27;42.83;;;23.33;;
18265;SDS011;9259;48.194;16.322;2022-10-14T09:47:58;39.90;;;21.80;;
18265;SDS011;9259;48.194;16.322;2022-10-14T09:50:32;37.25;;;20.90;;
18265;SDS011;9259;48.194;16.322;2022-10-14T09:53:02;40.88;;;21.02;;
18265;SDS011;9259;48.194;16.322;2022-10-14T09:55:33;39.45;;;21.38;;
18265;SDS011;9259;48.194;16.322;2022-10-14T09:58:03;38.67;;;20.83;;
18265;SDS011;9259;48.194;16.322;2022-10-14T10:00:33;39.03;;;20.73;;
18265;SDS011;9259;48.194;16.322;2022-10-14T10:03:04;36.60;;;21.17;;
18265;SDS011;9259;48.194;16.322;2022-10-14T10:05:33;35.15;;;20.55;;
18265;SDS011;9259;48.194;16.322;2022-10-14T10:08:04;36.78;;;20.95;;
18265;SDS011;9259;48.194;16.322;2022-10-14T10:10:36;39.17;;;21.10;;
18265;SDS011;9259;48.194;16.322;2022-10-14T10:13:04;42.20;;;22.55;;
18265;SDS011;9259;48.194;16.322;2022-10-14T10:15:57;38.95;;;22.65;;
18265;SDS011;9259;48.194;16.322;2022-10-14T10:18:28;41.45;;;23.17;;
18265;SDS011;9259;48.194;16.322;2022-10-14T10:20:59;42.17;;;24.45;;
18265;SDS011;9259;48.194;16.322;2022-10-14T10:23:31;47.60;;;24.15;;
18265;SDS011;9259;48.194;16.322;2022-10-14T10:26:13;42.28;;;24.13;;
18265;SDS011;9259;48.194;16.322;2022-10-14T10:28:43;44.53;;;24.08;;
18265;SDS011;9259;48.194;16.322;2022-10-14T10:31:17;45.80;;;23.73;;
18265;SDS011;9259;48.194;16.322;2022-10-14T10:33:53;41.83;;;23.60;;
18265;SDS011;9259;48.194;16.322;2022-10-14T10:36:24;40.08;;;22.00;;
18265;SDS011;9259;48.194;16.322;2022-10-14T10:38:59;34.47;;;19.80;;
18265;SDS011;9259;48.194;16.322;2022-10-14T10:41:40;31.92;;;18.67;;
18265;SDS011;9259;48.194;16.322;2022-10-14T10:47:11;30.25;;;17.05;;
18265;SDS011;9259;48.194;16.322;2022-10-14T10:52:50;27.83;;;16.30;;
18265;SDS011;9259;48.194;16.322;2022-10-14T10:55:31;38.33;;;16.63;;
18265;SDS011;9259;48.194;16.322;2022-10-14T10:58:04;31.38;;;15.52;;
18265;SDS011;9259;48.194;16.322;2022-10-14T11:00:43;28.77;;;14.70;;
18265;SDS011;9259;48.194;16.322;2022-10-14T11:03:20;23.17;;;14.13;;
18265;SDS011;9259;48.194;16.322;2022-10-14T11:06:03;19.77;;;10.90;;
18265;SDS011;9259;48.194;16.322;2022-10-14T11:08:42;12.60;;;7.50;;
18265;SDS011;9259;48.194;16.322;2022-10-14T11:11:35;13.77;;;8.75;;
18265;SDS011;9259;48.194;16.322;2022-10-14T11:14:31;13.85;;;7.20;;
18265;SDS011;9259;48.194;16.322;2022-10-14T11:17:13;13.20;;;6.60;;
18265;SDS011;9259;48.194;16.322;2022-10-14T11:19:48;10.98;;;6.93;;
18265;SDS011;9259;48.194;16.322;2022-10-14T11:22:23;12.52;;;7.03;;
18265;SDS011;9259;48.194;16.322;2022-10-14T11:25:09;11.10;;;6.93;;
18265;SDS011;9259;48.194;16.322;2022-10-14T11:27:46;8.88;;;5.07;;
18265;SDS011;9259;48.194;16.322;2022-10-14T11:30:17;8.07;;;4.30;;
18265;SDS011;9259;48.194;16.322;2022-10-14T11:32:51;7.32;;;4.20;;
18265;SDS011;9259;48.194;16.322;2022-10-14T11:35:30;8.73;;;4.82;;
18265;SDS011;9259;48.194;16.322;2022-10-14T11:38:09;7.68;;;4.88;;
18265;SDS011;9259;48.194;16.322;2022-10-14T11:40:51;9.05;;;5.88;;
18265;SDS011;9259;48.194;16.322;2022-10-14T11:43:25;12.48;;;6.38;;
18265;SDS011;9259;48.194;16.322;2022-10-14T11:45:58;9.95;;;6.75;;
18265;SDS011;9259;48.194;16.322;2022-10-14T11:48:29;11.27;;;7.03;;
18265;SDS011;9259;48.194;16.322;2022-10-14T11:51:03;13.77;;;7.30;;
18265;SDS011;9259;48.194;16.322;2022-10-14T11:53:48;11.82;;;6.88;;
18265;SDS011;9259;48.194;16.322;2022-10-14T11:56:28;13.57;;;6.90;;
18265;SDS011;9259;48.194;16.322;2022-10-14T11:59:02;11.90;;;6.97;;
18265;SDS011;9259;48.194;16.322;2022-10-14T12:01:47;9.77;;;6.63;;
18265;SDS011;9259;48.194;16.322;2022-10-14T12:04:18;11.23;;;6.47;;
18265;SDS011;9259;48.194;16.322;2022-10-14T12:06:52;9.73;;;6.28;;
18265;SDS011;9259;48.194;16.322;2022-10-14T12:09:27;9.90;;;5.82;;
18265;SDS011;9259;48.194;16.322;2022-10-14T12:12:06;11.57;;;5.85;;
18265;SDS011;9259;48.194;16.322;2022-10-14T12:14:37;10.32;;;6.25;;
18265;SDS011;9259;48.194;16.322;2022-10-14T12:17:10;10.07;;;6.15;;
18265;SDS011;9259;48.194;16.322;2022-10-14T12:19:44;7.78;;;4.97;;
18265;SDS011;9259;48.194;16.322;2022-10-14T12:22:14;11.52;;;5.80;;
18265;SDS011;9259;48.194;16.322;2022-10-14T12:24:45;11.85;;;6.03;;
18265;SDS011;9259;48.194;16.322;2022-10-14T12:27:17;10.52;;;6.53;;
18265;SDS011;9259;48.194;16.322;2022-10-14T12:29:47;13.93;;;5.88;;
18265;SDS011;9259;48.194;16.322;2022-10-14T12:32:18;12.32;;;5.88;;
18265;SDS011;9259;48.194;16.322;2022-10-14T12:34:49;11.82;;;5.70;;
18265;SDS011;9259;48.194;16.322;2022-10-14T12:40:21;9.82;;;5.38;;
18265;SDS011;9259;48.194;16.322;2022-10-14T12:42:57;9.65;;;5.10;;
18265;SDS011;9259;48.194;16.322;2022-10-14T12:45:46;7.25;;;4.35;;
18265;SDS011;9259;48.194;16.322;2022-10-14T12:48:16;10.27;;;4.88;;
18265;SDS011;9259;48.194;16.322;2022-10-14T12:50:46;8.55;;;5.18;;
18265;SDS011;9259;48.194;16.322;2022-10-14T12:53:19;6.90;;;4.18;;
18265;SDS011;9259;48.194;16.322;2022-10-14T12:55:49;7.10;;;4.15;;
18265;SDS011;9259;48.194;16.322;2022-10-14T12:58:25;13.13;;;4.28;;
18265;SDS011;9259;48.194;16.322;2022-10-14T13:00:59;6.72;;;3.55;;
18265;SDS011;9259;48.194;16.322;2022-10-14T13:03:30;8.52;;;4.57;;
18265;SDS011;9259;48.194;16.322;2022-10-14T13:12:10;7.90;;;4.03;;
18265;SDS011;9259;48.194;16.322;2022-10-14T13:15:03;5.28;;;2.92;;
18265;SDS011;9259;48.194;16.322;2022-10-14T13:17:44;4.05;;;2.22;;
18265;SDS011;9259;48.194;16.322;2022-10-14T13:23:20;7.40;;;3.38;;
18265;SDS011;9259;48.194;16.322;2022-10-14T13:25:55;2.85;;;2.40;;
18265;SDS011;9259;48.194;16.322;2022-10-14T13:28:33;4.88;;;3.22;;
18265;SDS011;9259;48.194;16.322;2022-10-14T13:31:05;6.07;;;3.15;;
18265;SDS011;9259;48.194;16.322;2022-10-14T13:33:37;5.25;;;3.30;;
18265;SDS011;9259;48.194;16.322;2022-10-14T13:36:12;5.43;;;3.05;;
18265;SDS011;9259;48.194;16.322;2022-10-14T13:38:44;4.72;;;3.00;;
18265;SDS011;9259;48.194;16.322;2022-10-14T13:41:18;5.13;;;2.65;;
18265;SDS011;9259;48.194;16.322;2022-10-14T13:43:50;5.75;;;2.50;;
18265;SDS011;9259;48.194;16.322;2022-10-14T13:46:23;4.43;;;2.63;;
18265;SDS011;9259;48.194;16.322;2022-10-14T13:48:54;4.57;;;2.05;;
18265;SDS011;9259;48.194;16.322;2022-10-14T13:51:24;4.60;;;2.30;;
18265;SDS011;9259;48.194;16.322;2022-10-14T13:53:55;3.58;;;2.35;;
18265;SDS011;9259;48.194;16.322;2022-10-14T13:56:26;4.78;;;2.72;;
18265;SDS011;9259;48.194;16.322;2022-10-14T13:58:55;4.40;;;2.92;;
18265;SDS011;9259;48.194;16.322;2022-10-14T14:01:30;7.65;;;3.20;;
18265;SDS011;9259;48.194;16.322;2022-10-14T14:04:01;6.15;;;2.63;;
18265;SDS011;9259;48.194;16.322;2022-10-14T14:06:29;7.53;;;3.80;;
18265;SDS011;9259;48.194;16.322;2022-10-14T14:08:58;4.88;;;3.40;;
18265;SDS011;9259;48.194;16.322;2022-10-14T14:11:28;5.38;;;3.55;;
18265;SDS011;9259;48.194;16.322;2022-10-14T14:13:57;7.18;;;3.88;;
18265;SDS011;9259;48.194;16.322;2022-10-14T14:16:30;10.02;;;4.07;;
18265;SDS011;9259;48.194;16.322;2022-10-14T14:19:00;6.95;;;3.42;;
18265;SDS011;9259;48.194;16.322;2022-10-14T14:21:28;7.20;;;3.40;;
18265;SDS011;9259;48.194;16.322;2022-10-14T14:23:57;9.35;;;4.10;;
18265;SDS011;9259;48.194;16.322;2022-10-14T14:26:31;6.60;;;3.90;;
18265;SDS011;9259;48.194;16.322;2022-10-14T14:29:02;7.85;;;4.10;;
18265;SDS011;9259;48.194;16.322;2022-10-14T14:31:32;6.50;;;3.80;;
18265;SDS011;9259;48.194;16.322;2022-10-14T14:34:01;6.68;;;4.13;;
18265;SDS011;9259;48.194;16.322;2022-10-14T14:36:29;9.82;;;5.47;;
18265;SDS011;9259;48.194;16.322;2022-10-14T14:38:58;9.90;;;5.35;;
18265;SDS011;9259;48.194;16.322;2022-10-14T14:41:27;9.18;;;5.07;;
18265;SDS011;9259;48.194;16.322;2022-10-14T14:43:56;7.93;;;5.20;;
18265;SDS011;9259;48.194;16.322;2022-10-14T14:46:29;8.95;;;5.00;;
18265;SDS011;9259;48.194;16.322;2022-10-14T14:49:02;9.05;;;5.10;;
18265;SDS011;9259;48.194;16.322;2022-10-14T14:51:31;9.98;;;5.25;;
18265;SDS011;9259;48.194;16.322;2022-10-14T14:54:00;10.65;;;5.18;;
18265;SDS011;9259;48.194;16.322;2022-10-14T14:56:30;7.40;;;4.90;;
18265;SDS011;9259;48.194;16.322;2022-10-14T14:59:01;8.88;;;4.80;;
18265;SDS011;9259;48.194;16.322;2022-10-14T15:01:34;6.00;;;4.07;;
18265;SDS011;9259;48.194;16.322;2022-10-14T15:04:03;7.72;;;4.18;;
18265;SDS011;9259;48.194;16.322;2022-10-14T15:06:33;9.43;;;5.22;;